Terminal Aerodrome Forecast
Issued by NWS

Home | Current Version | Previous Version | Text Only | Print | Product List | Glossary On
Versions: 1 2 3 4 5 6 7 8 9 10 11 12 13 14 15 16 17 18 19 20 21 22 23 24 25 26
000
FTUS44 KEWX 021100
TAFSSF
TAF
KSSF 021132Z 0212/0312 02009KT 6SM -DZ BR OVC008
     FM021800 02006KT 5SM BR OVC007
     FM030000 03006KT 3SM BR OVC003
     FM030900 12004KT 1SM BR OVC001=

USA.gov is the U.S. government's official web portal to all federal, state and local government web resources and services.